createdAt,value
2023-03-02T00:00:01.100Z,4.1
2023-03-02T00:05:01.131Z,4.1
2023-03-02T00:10:01.183Z,4.1
2023-03-02T00:15:01.134Z,4.1
2023-03-02T00:20:01.178Z,4.1
2023-03-02T00:25:01.145Z,4.1
2023-03-02T00:30:01.171Z,4.1
2023-03-02T00:35:01.113Z,4.2
2023-03-02T00:40:01.189Z,4.1
2023-03-02T00:45:01.151Z,4.1
2023-03-02T00:50:01.151Z,4.1
2023-03-02T00:55:01.128Z,4.1
2023-03-02T01:00:01.141Z,4.1
2023-03-02T01:05:01.172Z,4.1
2023-03-02T01:10:01.143Z,4.1
2023-03-02T01:15:01.165Z,4.1
2023-03-02T01:20:01.155Z,4.2
2023-03-02T01:25:01.259Z,4.2
2023-03-02T01:30:01.160Z,4.2
2023-03-02T01:35:01.173Z,4.2
2023-03-02T01:40:01.184Z,4.2
2023-03-02T01:45:01.076Z,4.2
2023-03-02T01:50:01.156Z,4.2
2023-03-02T01:55:01.132Z,4.2
2023-03-02T02:00:01.145Z,4.2
2023-03-02T02:05:01.127Z,4.2
2023-03-02T02:10:01.123Z,4.2
2023-03-02T02:15:01.231Z,4.2
2023-03-02T02:20:01.167Z,4.2
2023-03-02T02:25:01.202Z,4.2
2023-03-02T02:30:01.125Z,4.2
2023-03-02T02:35:01.176Z,4.1
2023-03-02T02:40:01.153Z,4.2
2023-03-02T02:45:01.127Z,4.1
2023-03-02T02:50:01.207Z,4.1
2023-03-02T02:55:01.219Z,4.1
2023-03-02T03:00:01.237Z,4.1
2023-03-02T03:05:01.243Z,4.1
2023-03-02T03:10:01.201Z,4.1
2023-03-02T03:15:01.154Z,4.1
2023-03-02T03:20:01.137Z,4.1
2023-03-02T03:25:01.063Z,4.2
2023-03-02T03:30:01.125Z,4.2
2023-03-02T03:35:01.107Z,4.2
2023-03-02T03:40:01.097Z,4.1
2023-03-02T03:45:01.121Z,4.1
2023-03-02T03:50:01.141Z,4.2
2023-03-02T03:55:01.135Z,4.1
2023-03-02T04:00:01.118Z,4.1
2023-03-02T04:05:01.129Z,4.1
2023-03-02T04:10:01.182Z,4.1
2023-03-02T04:15:01.184Z,4.1
2023-03-02T04:20:01.168Z,4.1
2023-03-02T04:25:01.196Z,4.1
2023-03-02T04:30:01.110Z,4
2023-03-02T04:35:01.149Z,4
2023-03-02T04:40:01.128Z,4
2023-03-02T04:45:01.183Z,4
2023-03-02T04:50:01.195Z,3.9
2023-03-02T04:55:01.166Z,3.9
2023-03-02T05:00:01.233Z,3.9
2023-03-02T05:05:01.130Z,3.9
2023-03-02T05:10:01.148Z,3.8
2023-03-02T05:15:01.184Z,3.8
2023-03-02T05:20:01.160Z,3.8
2023-03-02T05:25:01.137Z,3.8
2023-03-02T05:30:01.229Z,3.7
2023-03-02T05:35:01.146Z,3.7
2023-03-02T05:40:01.150Z,3.8
2023-03-02T05:45:01.229Z,3.7
2023-03-02T05:50:01.159Z,3.7
2023-03-02T05:55:01.161Z,3.7
2023-03-02T06:00:01.130Z,3.7
2023-03-02T06:05:01.149Z,3.7
2023-03-02T06:10:01.122Z,3.8
2023-03-02T06:15:01.074Z,3.8
2023-03-02T06:20:01.133Z,3.8
2023-03-02T06:25:01.163Z,3.9
2023-03-02T06:30:01.181Z,3.9
2023-03-02T06:35:01.192Z,3.9
2023-03-02T06:40:01.317Z,4
2023-03-02T06:45:01.138Z,4
2023-03-02T06:50:01.187Z,4
2023-03-02T06:55:01.221Z,4
2023-03-02T07:00:01.202Z,4.1
2023-03-02T07:05:01.172Z,4.1
2023-03-02T07:10:01.111Z,4.2
2023-03-02T07:15:01.251Z,4.2
2023-03-02T07:20:01.237Z,4.2
2023-03-02T07:25:01.190Z,4.2
2023-03-02T07:30:01.168Z,4.3
2023-03-02T07:35:01.140Z,4.3
2023-03-02T07:40:01.205Z,4.3
2023-03-02T07:45:01.292Z,4.4
2023-03-02T07:50:01.110Z,4.4
2023-03-02T07:55:01.143Z,4.5
2023-03-02T08:00:01.120Z,4.4
2023-03-02T08:05:01.127Z,4.5
2023-03-02T08:10:01.284Z,4.6
2023-03-02T08:15:03.114Z,4.5
2023-03-02T08:20:01.251Z,4.6
2023-03-02T08:25:01.263Z,4.6
2023-03-02T08:30:01.258Z,4.6
2023-03-02T08:35:01.146Z,4.6
2023-03-02T08:40:01.167Z,4.7
2023-03-02T08:45:01.125Z,4.6
2023-03-02T08:50:01.131Z,4.6
2023-03-02T08:55:03.266Z,4.6
2023-03-02T09:00:01.242Z,4.6
2023-03-02T09:05:01.156Z,4.5
2023-03-02T09:10:01.069Z,4.5
2023-03-02T09:15:01.155Z,4.4
2023-03-02T09:20:01.140Z,4.5
2023-03-02T09:25:01.228Z,4.5
2023-03-02T09:30:01.118Z,4.5
2023-03-02T09:35:01.123Z,4.4
2023-03-02T09:40:01.119Z,4.4
2023-03-02T09:45:01.213Z,4.5
2023-03-02T09:50:01.144Z,4.5
2023-03-02T09:55:01.104Z,4.5
2023-03-02T10:00:06.696Z,4.5
2023-03-02T10:05:01.135Z,4.5
2023-03-02T10:10:01.148Z,4.5
2023-03-02T10:15:01.205Z,4.5
2023-03-02T10:20:01.144Z,4.5
2023-03-02T10:25:01.133Z,4.5
2023-03-02T10:30:01.098Z,4.5
2023-03-02T10:35:01.165Z,4.5
2023-03-02T10:40:01.185Z,4.6
2023-03-02T10:45:01.195Z,4.5
2023-03-02T10:50:01.165Z,4.5
2023-03-02T10:55:01.180Z,4.4
2023-03-02T11:00:01.211Z,4.4
2023-03-02T11:05:01.297Z,4.5
2023-03-02T11:10:01.219Z,4.5
2023-03-02T11:15:01.139Z,4.5
2023-03-02T11:20:01.178Z,4.5
2023-03-02T11:25:01.133Z,4.5
2023-03-02T11:30:01.146Z,4.5
2023-03-02T11:35:01.256Z,4.5
2023-03-02T11:40:01.176Z,4.6
2023-03-02T11:45:01.147Z,4.6
2023-03-02T11:50:01.172Z,4.6
2023-03-02T11:55:01.155Z,4.5
2023-03-02T12:00:01.133Z,4.6
2023-03-02T12:05:01.215Z,4.5
2023-03-02T12:10:01.134Z,4.5
2023-03-02T12:15:01.196Z,4.6
2023-03-02T12:20:01.220Z,4.6
2023-03-02T12:25:01.140Z,4.6
2023-03-02T12:30:01.125Z,4.5
2023-03-02T12:35:01.156Z,4.5
2023-03-02T12:40:02.658Z,4.6
2023-03-02T12:45:01.337Z,4.6
2023-03-02T12:50:01.122Z,4.6
2023-03-02T12:55:01.125Z,4.6
2023-03-02T13:00:01.145Z,4.6
2023-03-02T13:05:01.190Z,4.6
2023-03-02T13:10:01.216Z,4.6
2023-03-02T13:15:01.383Z,4.7
2023-03-02T13:20:01.370Z,4.6
2023-03-02T13:25:01.130Z,4.6
2023-03-02T13:30:01.177Z,4.6
2023-03-02T13:35:01.144Z,4.7
2023-03-02T13:40:01.256Z,4.7
2023-03-02T13:45:01.114Z,4.7
2023-03-02T13:50:01.243Z,4.7
2023-03-02T13:55:01.173Z,4.7
2023-03-02T14:00:01.108Z,4.7
2023-03-02T14:05:01.288Z,4.7
2023-03-02T14:10:01.159Z,4.7
2023-03-02T14:15:01.135Z,4.7
2023-03-02T14:20:01.106Z,4.7
2023-03-02T14:25:01.209Z,4.6
2023-03-02T14:30:01.226Z,4.7
2023-03-02T14:35:01.169Z,4.7
2023-03-02T14:40:01.112Z,4.8
2023-03-02T14:45:01.242Z,4.7
2023-03-02T14:50:01.111Z,4.7
2023-03-02T14:55:01.142Z,4.7
2023-03-02T15:00:01.227Z,4.7
2023-03-02T15:05:01.162Z,4.7
2023-03-02T15:10:01.182Z,4.7
2023-03-02T15:15:01.170Z,4.7
2023-03-02T15:20:01.122Z,4.7
2023-03-02T15:25:01.133Z,4.7
2023-03-02T15:30:01.135Z,4.7
2023-03-02T15:35:01.154Z,4.7
2023-03-02T15:40:01.181Z,4.7
2023-03-02T15:45:01.119Z,4.7
2023-03-02T15:50:01.230Z,4.7
2023-03-02T15:55:01.141Z,4.7
2023-03-02T16:00:01.139Z,4.6
2023-03-02T16:05:01.176Z,4.7
2023-03-02T16:10:01.121Z,4.7
2023-03-02T16:15:01.166Z,4.6
2023-03-02T16:20:01.235Z,4.6
2023-03-02T16:25:01.270Z,4.6
2023-03-02T16:30:01.159Z,4.6
2023-03-02T16:35:01.144Z,4.6
2023-03-02T16:40:01.152Z,4.6
2023-03-02T16:45:01.248Z,4.6
2023-03-02T16:50:01.173Z,4.6
2023-03-02T16:55:01.087Z,4.6
2023-03-02T17:00:01.145Z,4.5
2023-03-02T17:05:01.200Z,4.5
2023-03-02T17:10:01.206Z,4.5
2023-03-02T17:15:01.159Z,4.5
2023-03-02T17:20:01.210Z,4.5
2023-03-02T17:25:02.418Z,4.5
2023-03-02T17:30:01.213Z,4.5
2023-03-02T17:35:01.120Z,4.4
2023-03-02T17:40:01.134Z,4.4
2023-03-02T17:45:01.180Z,4.4
2023-03-02T17:50:01.186Z,4.3
2023-03-02T17:55:01.150Z,4.2
2023-03-02T18:00:01.129Z,4.1
2023-03-02T18:05:01.213Z,4.1
2023-03-02T18:10:01.199Z,4
2023-03-02T18:15:01.109Z,4
2023-03-02T18:20:01.109Z,3.9
2023-03-02T18:25:01.148Z,3.9
2023-03-02T18:30:01.143Z,3.9
2023-03-02T18:35:01.098Z,3.9
2023-03-02T18:40:01.096Z,3.8
2023-03-02T18:45:01.169Z,3.9
2023-03-02T18:50:01.304Z,3.8
2023-03-02T18:55:01.200Z,3.8
2023-03-02T19:00:01.167Z,3.8
2023-03-02T19:05:01.128Z,3.8
2023-03-02T19:10:01.167Z,3.8
2023-03-02T19:15:01.192Z,3.8
2023-03-02T19:20:01.131Z,3.7
2023-03-02T19:25:01.109Z,3.7
2023-03-02T19:30:01.216Z,3.8
2023-03-02T19:35:01.250Z,3.7
2023-03-02T19:40:01.175Z,3.7
2023-03-02T19:45:01.210Z,3.7
2023-03-02T19:50:01.159Z,3.7
2023-03-02T19:55:01.108Z,3.7
2023-03-02T20:00:01.118Z,3.7
2023-03-02T20:05:01.138Z,3.7
2023-03-02T20:10:01.160Z,3.7
2023-03-02T20:15:01.103Z,3.6
2023-03-02T20:20:01.295Z,3.6
2023-03-02T20:25:01.120Z,3.7
2023-03-02T20:30:01.222Z,3.6
2023-03-02T20:35:01.216Z,3.6
2023-03-02T20:40:01.151Z,3.6
2023-03-02T20:45:01.178Z,3.6
2023-03-02T20:50:01.122Z,3.5
2023-03-02T20:55:01.147Z,3.5
2023-03-02T21:00:01.191Z,3.5
2023-03-02T21:05:01.422Z,3.5
2023-03-02T21:10:01.184Z,3.6
2023-03-02T21:15:01.124Z,3.6
2023-03-02T21:20:01.185Z,3.6
2023-03-02T21:25:01.373Z,3.6
2023-03-02T21:30:01.129Z,3.6
2023-03-02T21:35:01.219Z,3.5
2023-03-02T21:40:01.174Z,3.5
2023-03-02T21:45:01.174Z,3.5
2023-03-02T21:50:01.272Z,3.5
2023-03-02T21:55:01.253Z,3.5
2023-03-02T22:00:01.265Z,3.5
2023-03-02T22:05:01.265Z,3.5
2023-03-02T22:10:01.232Z,3.5
2023-03-02T22:15:01.234Z,3.5
2023-03-02T22:20:01.213Z,3.5
2023-03-02T22:25:01.176Z,3.5
2023-03-02T22:30:01.122Z,3.6
2023-03-02T22:35:01.191Z,3.6
2023-03-02T22:40:01.198Z,3.5
2023-03-02T22:45:01.180Z,3.5
2023-03-02T22:50:01.162Z,3.5
2023-03-02T22:55:01.150Z,3.5
2023-03-02T23:00:01.234Z,3.5
2023-03-02T23:05:01.171Z,3.5
2023-03-02T23:10:01.228Z,3.5
2023-03-02T23:15:01.179Z,3.5
2023-03-02T23:20:01.121Z,3.6
2023-03-02T23:25:01.169Z,3.7
2023-03-02T23:30:01.127Z,3.7
2023-03-02T23:35:01.128Z,3.8
2023-03-02T23:40:01.151Z,3.8
2023-03-02T23:45:01.202Z,3.8
2023-03-02T23:50:01.113Z,3.8
2023-03-02T23:55:01.094Z,3.8
